createdAt,value
2023-04-19T00:01:53.353Z,66.77
2023-04-19T00:04:23.057Z,66.19
2023-04-19T00:06:51.959Z,66.68
2023-04-19T00:09:19.985Z,66.91
2023-04-19T00:11:47.898Z,66.31
2023-04-19T00:14:16.007Z,66.65
2023-04-19T00:16:44.171Z,66.78
2023-04-19T00:19:12.388Z,66.43
2023-04-19T00:21:41.704Z,66.41
2023-04-19T00:24:09.749Z,66.94
2023-04-19T00:26:37.651Z,66.54
2023-04-19T00:29:05.626Z,66.84
2023-04-19T00:31:33.511Z,66.08
2023-04-19T00:34:01.442Z,65.78
2023-04-19T00:36:29.369Z,65.72
2023-04-19T00:38:58.683Z,65.68
2023-04-19T00:41:26.639Z,66.11
2023-04-19T00:43:54.526Z,65.19
2023-04-19T00:46:23.520Z,65.81
2023-04-19T00:48:51.817Z,65.19
2023-04-19T00:51:19.755Z,65.50
2023-04-19T00:53:47.792Z,65.65
2023-04-19T00:56:18.084Z,65.13
2023-04-19T00:58:46.119Z,65.45
2023-04-19T01:01:14.067Z,65.23
2023-04-19T01:03:42.313Z,64.66
2023-04-19T01:06:10.429Z,65.20
2023-04-19T01:08:39.617Z,65.51
2023-04-19T01:11:08.098Z,65.40
2023-04-19T01:13:37.437Z,65.55
2023-04-19T01:16:06.046Z,65.61
2023-04-19T01:18:37.549Z,65.53
2023-04-19T01:21:06.188Z,65.52
2023-04-19T01:23:35.476Z,65.70
2023-04-19T01:26:03.588Z,65.95
2023-04-19T01:28:31.454Z,65.28
2023-04-19T01:30:59.391Z,66.14
2023-04-19T01:33:27.416Z,65.63
2023-04-19T01:35:55.444Z,65.64
2023-04-19T01:38:23.435Z,65.78
2023-04-19T01:40:52.701Z,66.29
2023-04-19T01:43:20.608Z,66.28
2023-04-19T01:45:48.522Z,66.24
2023-04-19T01:48:16.428Z,66.60
2023-04-19T01:50:44.336Z,66.21
2023-04-19T01:53:12.232Z,66.71
2023-04-19T01:55:40.398Z,66.57
2023-04-19T01:58:09.899Z,66.87
2023-04-19T02:00:39.000Z,66.71
2023-04-19T02:03:07.087Z,66.74
2023-04-19T02:05:35.095Z,66.37
2023-04-19T02:08:03.021Z,67.17
2023-04-19T02:10:30.951Z,66.81
2023-04-19T02:12:58.854Z,67.26
2023-04-19T02:15:28.153Z,67.04
2023-04-19T02:17:56.122Z,67.32
2023-04-19T02:20:24.894Z,67.41
2023-04-19T02:22:52.805Z,66.90
2023-04-19T02:25:20.914Z,67.32
2023-04-19T02:27:48.812Z,67.22
2023-04-19T02:30:16.984Z,67.19
2023-04-19T02:32:46.326Z,67.19
2023-04-19T02:35:14.324Z,67.16
2023-04-19T02:37:43.221Z,67.44
2023-04-19T02:40:11.495Z,67.46
2023-04-19T02:42:39.390Z,67.48
2023-04-19T02:45:09.057Z,67.56
2023-04-19T02:47:37.169Z,67.50
2023-04-19T02:50:07.785Z,67.07
2023-04-19T02:52:35.698Z,67.37
2023-04-19T02:55:04.594Z,67.68
2023-04-19T02:57:32.513Z,67.82
2023-04-19T03:00:00.398Z,68.16
2023-04-19T03:02:28.358Z,68.62
2023-04-19T03:04:56.368Z,68.32
2023-04-19T03:07:26.072Z,68.02
2023-04-19T03:09:53.977Z,68.73
2023-04-19T03:12:21.897Z,68.64
2023-04-19T03:14:49.826Z,68.78
2023-04-19T03:17:17.734Z,68.47
2023-04-19T03:19:45.684Z,68.26
2023-04-19T03:22:13.581Z,68.69
2023-04-19T03:24:43.018Z,69.33
2023-04-19T03:27:10.937Z,69.30
2023-04-19T03:29:38.841Z,69.02
2023-04-19T03:32:08.367Z,68.95
2023-04-19T03:34:36.309Z,68.34
2023-04-19T03:37:04.188Z,68.86
2023-04-19T03:39:32.064Z,68.53
2023-04-19T03:42:01.470Z,68.53
2023-04-19T03:44:29.416Z,68.70
2023-04-19T03:46:57.311Z,68.50
2023-04-19T03:49:25.280Z,68.47
2023-04-19T03:51:53.212Z,68.29
2023-04-19T03:54:21.100Z,68.31
2023-04-19T03:56:49.036Z,68.49
2023-04-19T03:59:18.348Z,68.41
2023-04-19T04:01:46.323Z,68.62
2023-04-19T04:04:14.687Z,68.69
2023-04-19T04:06:43.025Z,68.67
2023-04-19T04:09:11.146Z,68.18
2023-04-19T04:11:39.073Z,68.03
2023-04-19T04:14:07.810Z,68.07
2023-04-19T04:16:37.224Z,68.00
2023-04-19T04:19:05.358Z,67.70
2023-04-19T04:21:33.271Z,67.39
2023-04-19T04:24:02.310Z,67.41
2023-04-19T04:26:33.976Z,67.25
2023-04-19T04:29:03.057Z,66.95
2023-04-19T04:31:31.848Z,67.43
2023-04-19T04:34:01.244Z,67.36
2023-04-19T04:36:29.867Z,67.09
2023-04-19T04:38:58.279Z,67.19
2023-04-19T04:41:27.030Z,67.13
2023-04-19T04:44:10.789Z,66.79
2023-04-19T04:46:40.298Z,66.71
2023-04-19T04:49:09.609Z,66.58
2023-04-19T04:51:37.677Z,66.22
2023-04-19T04:54:06.292Z,66.54
2023-04-19T04:56:34.224Z,66.07
2023-04-19T04:59:02.156Z,66.64
2023-04-19T05:01:30.132Z,66.68
2023-04-19T05:03:58.119Z,66.41
2023-04-19T05:06:27.439Z,66.32
2023-04-19T05:08:55.337Z,65.87
2023-04-19T05:11:23.285Z,65.87
2023-04-19T05:13:51.254Z,65.75
2023-04-19T05:16:19.905Z,65.74
2023-04-19T05:18:47.836Z,65.74
2023-04-19T05:21:15.799Z,65.66
2023-04-19T05:23:45.085Z,65.43
2023-04-19T05:26:15.408Z,65.47
2023-04-19T05:28:44.491Z,65.23
2023-04-19T05:31:12.675Z,65.09
2023-04-19T05:33:40.705Z,64.86
2023-04-19T05:36:09.223Z,65.17
2023-04-19T05:38:37.135Z,64.74
2023-04-19T05:41:06.651Z,64.65
2023-04-19T05:43:34.539Z,64.43
2023-04-19T05:46:02.482Z,64.50
2023-04-19T05:48:30.432Z,64.42
2023-04-19T05:50:59.638Z,64.18
2023-04-19T05:53:27.572Z,64.32
2023-04-19T05:55:55.478Z,64.41
2023-04-19T05:58:24.808Z,63.66
2023-04-19T06:00:52.877Z,63.60
2023-04-19T06:03:21.013Z,63.84
2023-04-19T06:05:49.082Z,64.18
2023-04-19T06:08:17.744Z,63.87
2023-04-19T06:10:54.471Z,63.11
2023-04-19T06:13:26.242Z,63.81
2023-04-19T06:15:54.215Z,63.68
2023-04-19T06:18:22.148Z,63.41
2023-04-19T06:20:50.062Z,63.14
2023-04-19T06:23:18.731Z,63.23
2023-04-19T06:25:48.719Z,63.45
2023-04-19T06:28:16.937Z,63.10
2023-04-19T06:30:46.241Z,62.92
2023-04-19T06:33:15.789Z,62.52
2023-04-19T06:35:43.731Z,62.52
2023-04-19T06:38:11.676Z,62.70
2023-04-19T06:40:39.587Z,61.89
2023-04-19T06:43:07.477Z,62.93
2023-04-19T06:45:35.885Z,62.17
2023-04-19T06:48:05.822Z,62.83
2023-04-19T06:50:33.768Z,63.27
2023-04-19T06:53:04.068Z,61.73
2023-04-19T06:55:32.642Z,61.38
2023-04-19T06:58:00.561Z,62.80
2023-04-19T07:00:28.556Z,61.64
2023-04-19T07:02:56.961Z,62.77
2023-04-19T07:05:26.512Z,61.73
2023-04-19T07:07:54.437Z,62.34
2023-04-19T07:10:22.515Z,61.95
2023-04-19T07:12:50.561Z,62.27
2023-04-19T07:15:18.763Z,61.36
2023-04-19T07:17:47.016Z,61.15
2023-04-19T07:20:14.924Z,61.54
2023-04-19T07:22:44.266Z,61.61
2023-04-19T07:25:12.637Z,61.73
2023-04-19T07:27:40.541Z,61.59
2023-04-19T07:30:09.545Z,57.22
2023-04-19T07:32:37.522Z,60.98
2023-04-19T07:35:06.101Z,57.61
2023-04-19T07:37:33.993Z,60.05
2023-04-19T07:40:03.838Z,59.87
2023-04-19T07:42:31.908Z,57.99
2023-04-19T07:45:00.221Z,58.75
2023-04-19T07:47:28.149Z,57.79
2023-04-19T07:49:56.888Z,56.95
2023-04-19T07:52:24.824Z,58.53
2023-04-19T07:54:52.823Z,55.34
2023-04-19T07:57:22.112Z,58.15
2023-04-19T07:59:50.030Z,57.92
2023-04-19T08:02:19.266Z,57.96
2023-04-19T08:04:49.833Z,57.62
2023-04-19T08:07:17.937Z,57.38
2023-04-19T08:09:45.919Z,57.04
2023-04-19T08:12:26.233Z,56.24
2023-04-19T08:15:11.265Z,55.83
2023-04-19T08:17:48.168Z,55.01
2023-04-19T08:20:16.217Z,55.76
2023-04-19T08:22:44.199Z,55.71
2023-04-19T08:25:12.312Z,54.57
2023-04-19T08:27:40.341Z,53.70
2023-04-19T08:30:11.014Z,53.16
2023-04-19T08:32:39.045Z,53.54
2023-04-19T08:35:08.423Z,52.68
2023-04-19T08:37:36.601Z,53.36
2023-04-19T08:40:05.504Z,52.52
2023-04-19T08:42:36.712Z,50.53
2023-04-19T08:47:48.224Z,52.27
2023-04-19T08:50:33.472Z,50.18
2023-04-19T08:55:35.052Z,50.27
2023-04-19T08:58:09.646Z,49.23
2023-04-19T09:00:41.377Z,45.83
2023-04-19T09:03:11.432Z,45.82
2023-04-19T09:05:39.938Z,44.17
2023-04-19T09:08:24.952Z,44.65
2023-04-19T09:10:56.933Z,45.56
2023-04-19T09:13:25.499Z,43.69
2023-04-19T09:15:54.617Z,44.18
2023-04-19T09:18:24.978Z,42.46
2023-04-19T09:20:57.190Z,43.45
2023-04-19T09:23:26.523Z,44.12
2023-04-19T09:26:19.317Z,43.37
2023-04-19T09:28:57.105Z,43.68
2023-04-19T09:31:43.497Z,43.46
2023-04-19T09:34:16.564Z,42.79
2023-04-19T09:36:44.577Z,42.69
2023-04-19T09:39:14.596Z,40.37
2023-04-19T09:41:53.659Z,41.88
2023-04-19T09:45:01.741Z,43.48
2023-04-19T09:47:24.282Z,41.55
2023-04-19T09:50:21.221Z,43.84
2023-04-19T09:52:50.937Z,43.77
2023-04-19T09:55:26.728Z,43.43
2023-04-19T09:57:55.423Z,42.80
2023-04-19T10:00:24.068Z,43.20
2023-04-19T10:02:58.225Z,43.07
2023-04-19T10:05:28.164Z,44.36
2023-04-19T10:08:00.097Z,43.46
2023-04-19T10:10:41.234Z,42.22
2023-04-19T10:15:51.385Z,43.12
2023-04-19T10:18:21.811Z,42.97
2023-04-19T10:20:56.911Z,42.46
2023-04-19T10:23:24.896Z,40.49
2023-04-19T10:25:57.737Z,41.50
2023-04-19T10:28:25.831Z,41.68
2023-04-19T10:30:54.810Z,41.62
2023-04-19T10:33:28.458Z,41.33
2023-04-19T10:36:01.147Z,41.31
2023-04-19T10:38:40.162Z,42.18
2023-04-19T10:41:17.054Z,41.19
2023-04-19T10:43:47.238Z,40.30
2023-04-19T10:46:17.495Z,39.80
2023-04-19T10:48:55.572Z,36.63
2023-04-19T10:51:28.009Z,40.12
2023-04-19T10:54:00.380Z,40.89
2023-04-19T10:57:05.701Z,39.09
2023-04-19T10:59:34.686Z,36.68
2023-04-19T11:02:03.943Z,36.41
2023-04-19T11:05:00.661Z,35.35
2023-04-19T11:07:30.021Z,35.28
2023-04-19T11:09:57.968Z,33.16
2023-04-19T11:12:25.886Z,34.27
2023-04-19T11:14:54.894Z,34.41
2023-04-19T11:17:28.004Z,32.38
2023-04-19T11:19:57.501Z,33.95
2023-04-19T11:22:34.455Z,34.44
2023-04-19T11:25:10.403Z,34.95
2023-04-19T11:27:39.279Z,33.79
2023-04-19T11:30:10.430Z,34.37
2023-04-19T11:32:39.209Z,33.77
2023-04-19T11:35:09.008Z,33.33
2023-04-19T11:37:40.021Z,32.62
2023-04-19T11:40:10.069Z,31.69
2023-04-19T11:42:38.428Z,33.42
2023-04-19T11:45:18.678Z,32.44
2023-04-19T11:47:54.602Z,31.48
2023-04-19T11:50:36.493Z,32.28
2023-04-19T11:53:16.646Z,32.45
2023-04-19T11:55:48.493Z,30.46
2023-04-19T11:58:28.799Z,33.47
2023-04-19T12:00:58.304Z,33.53
2023-04-19T12:03:27.112Z,33.23
2023-04-19T12:05:56.913Z,28.91
2023-04-19T12:08:33.529Z,32.94
2023-04-19T12:11:03.557Z,31.43
2023-04-19T12:13:31.930Z,32.61
2023-04-19T12:15:59.960Z,30.94
2023-04-19T12:18:28.159Z,30.43
2023-04-19T12:20:56.087Z,32.97
2023-04-19T12:23:24.007Z,33.62
2023-04-19T12:25:53.867Z,32.24
2023-04-19T12:28:21.814Z,32.43
2023-04-19T12:30:50.041Z,32.17
2023-04-19T12:33:18.010Z,31.17
2023-04-19T12:35:45.978Z,32.47
2023-04-19T12:38:13.879Z,31.01
2023-04-19T12:40:41.819Z,31.37
2023-04-19T12:43:11.114Z,32.07
2023-04-19T12:45:39.070Z,32.69
2023-04-19T12:48:07.881Z,31.03
2023-04-19T12:50:35.868Z,31.33
2023-04-19T12:53:04.061Z,31.28
2023-04-19T12:55:32.001Z,32.07
2023-04-19T12:57:59.920Z,30.55
2023-04-19T13:00:30.177Z,29.10
2023-04-19T13:02:58.370Z,30.94
2023-04-19T13:05:26.365Z,30.71
2023-04-19T13:07:54.279Z,31.49
2023-04-19T13:10:22.393Z,31.31
2023-04-19T13:12:50.695Z,30.70
2023-04-19T13:15:18.679Z,30.48
2023-04-19T13:17:48.088Z,26.60
2023-04-19T13:20:16.096Z,29.91
2023-04-19T13:22:44.013Z,29.03
2023-04-19T13:25:12.037Z,29.20
2023-04-19T13:27:40.137Z,30.25
2023-04-19T13:30:09.596Z,29.87
2023-04-19T13:32:37.652Z,28.17
2023-04-19T13:35:07.761Z,28.17
2023-04-19T13:37:35.770Z,29.73
2023-04-19T13:40:18.044Z,29.64
2023-04-19T13:42:47.430Z,30.49
2023-04-19T13:45:15.346Z,29.33
2023-04-19T13:47:43.299Z,29.68
2023-04-19T13:50:13.059Z,30.15
2023-04-19T13:52:41.160Z,28.82
2023-04-19T13:55:09.982Z,29.38
2023-04-19T13:57:37.927Z,29.20
2023-04-19T14:00:07.217Z,29.93
2023-04-19T14:02:35.477Z,30.57
2023-04-19T14:05:04.657Z,30.33
2023-04-19T14:07:34.031Z,30.31
2023-04-19T14:10:02.041Z,29.85
2023-04-19T14:12:30.017Z,27.33
2023-04-19T14:14:57.957Z,28.38
2023-04-19T14:17:26.292Z,30.03
2023-04-19T14:19:54.408Z,28.08
2023-04-19T14:22:22.391Z,29.16
2023-04-19T14:24:51.729Z,28.89
2023-04-19T14:27:20.287Z,29.33
2023-04-19T14:29:48.215Z,28.17
2023-04-19T14:32:25.994Z,25.91
2023-04-19T14:34:54.926Z,28.77
2023-04-19T14:37:24.105Z,28.67
2023-04-19T14:39:53.754Z,28.53
2023-04-19T14:42:23.082Z,29.24
2023-04-19T14:44:52.567Z,25.42
2023-04-19T14:47:20.908Z,27.03
2023-04-19T14:49:48.780Z,29.82
2023-04-19T14:52:17.538Z,29.04
2023-04-19T14:54:45.492Z,28.46
2023-04-19T14:57:14.835Z,27.32
2023-04-19T14:59:42.776Z,28.68
2023-04-19T15:02:13.326Z,26.91
2023-04-19T15:04:41.858Z,27.83
2023-04-19T15:07:10.132Z,28.37
2023-04-19T15:09:38.221Z,27.50
2023-04-19T15:12:09.373Z,28.39
2023-04-19T15:14:39.664Z,24.98
2023-04-19T15:17:07.638Z,28.02
2023-04-19T15:19:35.693Z,27.34
2023-04-19T15:22:05.003Z,28.16
2023-04-19T15:24:35.088Z,27.96
2023-04-19T15:27:04.113Z,27.66
2023-04-19T15:29:32.087Z,27.00
2023-04-19T15:32:02.595Z,27.05
2023-04-19T15:34:30.747Z,27.80
2023-04-19T15:36:58.657Z,26.27
2023-04-19T15:39:26.643Z,28.10
2023-04-19T15:41:54.613Z,27.14
2023-04-19T15:44:22.496Z,26.97
2023-04-19T15:46:50.500Z,27.24
2023-04-19T15:49:19.989Z,27.73
2023-04-19T15:51:47.937Z,25.70
2023-04-19T15:54:16.248Z,23.98
2023-04-19T15:56:44.203Z,27.42
2023-04-19T15:59:12.124Z,27.69
2023-04-19T16:01:40.199Z,25.79
2023-04-19T16:04:08.262Z,26.46
2023-04-19T16:06:37.677Z,26.41
2023-04-19T16:09:06.548Z,27.03
2023-04-19T16:11:34.631Z,26.65
2023-04-19T16:14:02.523Z,26.92
2023-04-19T16:16:34.597Z,27.94
2023-04-19T16:19:02.843Z,27.00
2023-04-19T16:21:30.959Z,28.01
2023-04-19T16:24:00.957Z,27.74
2023-04-19T16:26:28.953Z,28.69
2023-04-19T16:28:56.916Z,28.70
2023-04-19T16:31:24.904Z,28.92
2023-04-19T16:33:52.836Z,28.51
2023-04-19T16:36:20.897Z,27.52
2023-04-19T16:38:48.824Z,26.67
2023-04-19T16:41:18.165Z,28.83
2023-04-19T16:43:46.289Z,28.58
2023-04-19T16:46:14.229Z,29.45
2023-04-19T16:48:42.123Z,29.63
2023-04-19T16:51:10.068Z,29.10
2023-04-19T16:53:37.976Z,29.45
2023-04-19T16:56:06.263Z,29.76
2023-04-19T16:58:36.636Z,28.02
2023-04-19T17:01:04.732Z,29.22
2023-04-19T17:03:32.888Z,30.41
2023-04-19T17:06:00.920Z,30.23
2023-04-19T17:08:28.871Z,31.24
2023-04-19T17:10:56.807Z,30.11
2023-04-19T17:13:24.751Z,29.38
2023-04-19T17:15:54.088Z,28.86
2023-04-19T17:18:22.276Z,31.53
2023-04-19T17:20:50.320Z,30.74
2023-04-19T17:23:18.341Z,30.99
2023-04-19T17:25:46.252Z,31.69
2023-04-19T17:28:14.477Z,32.13
2023-04-19T17:30:42.440Z,31.65
2023-04-19T17:33:12.198Z,31.58
2023-04-19T17:35:40.305Z,32.51
2023-04-19T17:38:08.223Z,31.79
2023-04-19T17:40:36.131Z,32.69
2023-04-19T17:43:04.066Z,34.80
2023-04-19T17:45:31.974Z,35.76
2023-04-19T17:48:00.002Z,34.63
2023-04-19T17:50:30.130Z,33.91
2023-04-19T17:52:58.021Z,33.15
2023-04-19T17:55:26.587Z,35.70
2023-04-19T17:57:54.568Z,36.10
2023-04-19T18:00:22.800Z,36.24
2023-04-19T18:02:50.836Z,36.23
2023-04-19T18:05:19.004Z,36.39
2023-04-19T18:07:48.333Z,36.81
2023-04-19T18:10:16.242Z,37.03
2023-04-19T18:12:44.168Z,35.62
2023-04-19T18:15:12.787Z,38.39
2023-04-19T18:17:41.300Z,37.80
2023-04-19T18:20:11.880Z,37.94
2023-04-19T18:22:41.869Z,38.50
2023-04-19T18:25:11.513Z,36.17
2023-04-19T18:27:39.437Z,37.54
2023-04-19T18:30:08.764Z,37.52
2023-04-19T18:32:36.991Z,36.77
2023-04-19T18:35:06.044Z,35.98
2023-04-19T18:37:34.054Z,37.85
2023-04-19T18:40:01.972Z,38.03
2023-04-19T18:42:31.261Z,38.24
2023-04-19T18:44:59.211Z,38.00
2023-04-19T18:47:27.875Z,36.62
2023-04-19T18:50:03.436Z,39.87
2023-04-19T18:52:34.046Z,39.93
2023-04-19T18:55:01.965Z,39.57
2023-04-19T18:57:34.675Z,38.32
2023-04-19T19:00:05.515Z,40.29
2023-04-19T19:02:36.078Z,40.38
2023-04-19T19:07:36.634Z,40.81
2023-04-19T19:10:16.970Z,41.38
2023-04-19T19:12:48.194Z,39.62
2023-04-19T19:15:16.446Z,41.84
2023-04-19T19:17:49.280Z,41.91
2023-04-19T19:20:18.087Z,41.65
2023-04-19T19:22:46.309Z,41.50
2023-04-19T19:25:14.335Z,41.84
2023-04-19T19:27:57.869Z,42.02
2023-04-19T19:30:33.930Z,41.93
2023-04-19T19:33:02.536Z,42.01
2023-04-19T19:35:30.649Z,40.84
2023-04-19T19:37:58.596Z,41.16
2023-04-19T19:40:30.878Z,41.60
2023-04-19T19:43:00.219Z,42.69
2023-04-19T19:45:28.649Z,42.62
2023-04-19T19:47:59.697Z,43.00
2023-04-19T19:53:00.390Z,41.06
2023-04-19T19:55:28.596Z,42.30
2023-04-19T20:02:59.629Z,41.91
2023-04-19T20:05:28.571Z,42.68
2023-04-19T20:08:08.005Z,41.89
2023-04-19T20:10:36.485Z,42.69
2023-04-19T20:13:06.270Z,42.94
2023-04-19T20:15:34.551Z,43.19
2023-04-19T20:18:04.356Z,42.72
2023-04-19T20:20:32.384Z,43.44
2023-04-19T20:23:00.409Z,43.20
2023-04-19T20:25:28.389Z,43.29
2023-04-19T20:27:56.537Z,43.34
2023-04-19T20:30:24.649Z,43.33
2023-04-19T20:32:52.758Z,43.41
2023-04-19T20:35:22.178Z,43.24
2023-04-19T20:37:51.012Z,42.53
2023-04-19T20:40:19.132Z,42.12
2023-04-19T20:42:47.090Z,42.51
2023-04-19T20:45:15.289Z,42.95
2023-04-19T20:50:56.823Z,42.67
2023-04-19T20:53:24.789Z,43.13
2023-04-19T20:55:52.688Z,43.28
2023-04-19T20:58:20.623Z,43.39
2023-04-19T21:00:48.620Z,43.53
2023-04-19T21:03:16.663Z,43.44
2023-04-19T21:05:44.629Z,44.10
2023-04-19T21:08:16.093Z,43.83
2023-04-19T21:10:44.116Z,44.30
2023-04-19T21:13:12.047Z,44.03
2023-04-19T21:15:39.951Z,45.72
2023-04-19T21:18:08.075Z,44.99
2023-04-19T21:20:36.052Z,45.59
2023-04-19T21:23:04.260Z,45.92
2023-04-19T21:25:33.561Z,46.19
2023-04-19T21:28:01.531Z,46.03
2023-04-19T21:30:30.540Z,45.95
2023-04-19T21:32:58.551Z,46.41
2023-04-19T21:35:26.773Z,46.19
2023-04-19T21:37:54.730Z,46.14
2023-04-19T21:40:22.907Z,46.25
2023-04-19T21:42:52.269Z,46.29
2023-04-19T21:45:20.213Z,46.33
2023-04-19T21:47:48.160Z,46.55
2023-04-19T21:50:16.116Z,46.62
2023-04-19T21:52:44.009Z,46.53
2023-04-19T21:55:11.978Z,46.30
2023-04-19T21:57:39.939Z,46.16
2023-04-19T22:00:10.766Z,46.06
2023-04-19T22:02:38.935Z,45.96
2023-04-19T22:05:08.261Z,46.15
2023-04-19T22:07:38.639Z,45.97
2023-04-19T22:10:08.272Z,45.52
2023-04-19T22:12:40.602Z,45.93
2023-04-19T22:15:18.232Z,45.91
2023-04-19T22:17:46.201Z,44.84
2023-04-19T22:20:14.835Z,45.15
2023-04-19T22:22:43.165Z,45.18
2023-04-19T22:25:11.307Z,45.24
2023-04-19T22:27:39.232Z,45.11
2023-04-19T22:30:08.725Z,43.30
2023-04-19T22:32:38.039Z,44.58
2023-04-19T22:35:06.913Z,43.76
2023-04-19T22:37:34.887Z,43.38
2023-04-19T22:40:05.258Z,43.57
2023-04-19T22:42:33.164Z,43.77
2023-04-19T22:45:01.101Z,44.05
2023-04-19T22:47:29.236Z,44.13
2023-04-19T22:49:58.542Z,44.55
2023-04-19T22:52:26.460Z,44.46
2023-04-19T22:54:54.352Z,43.76
2023-04-19T22:57:22.313Z,43.67
2023-04-19T22:59:50.242Z,44.66
2023-04-19T23:02:18.225Z,42.53
2023-04-19T23:04:48.601Z,44.09
2023-04-19T23:07:20.037Z,43.82
2023-04-19T23:09:48.074Z,43.37
2023-04-19T23:12:15.995Z,43.23
2023-04-19T23:14:43.957Z,43.25
2023-04-19T23:17:11.864Z,43.66
2023-04-19T23:19:39.764Z,43.65
2023-04-19T23:22:07.728Z,43.53
2023-04-19T23:24:37.163Z,42.02
2023-04-19T23:27:05.788Z,43.26
2023-04-19T23:29:33.927Z,41.86
2023-04-19T23:32:02.208Z,42.71
2023-04-19T23:34:30.109Z,43.25
2023-04-19T23:36:58.060Z,43.21
2023-04-19T23:39:26.098Z,43.58
2023-04-19T23:41:55.530Z,43.28
2023-04-19T23:44:23.477Z,43.17
2023-04-19T23:46:51.520Z,43.75
2023-04-19T23:49:19.852Z,43.63
2023-04-19T23:51:48.973Z,43.51
2023-04-19T23:54:20.927Z,43.90
2023-04-19T23:56:49.477Z,43.30
2023-04-19T23:59:19.216Z,44.03
